Gaylordsville, CT (06755)

4:54 AM EST on December 03, 2016 (GMT -0500)
Gaylordsville | | Change Station

Elev 400 ft 41.62 °N, 73.47 °W | Updated 3 minutes ago

Clear
Clear
38.8 °F
Feels Like 39 °F
N
0.0
Wind Variable Wind from SW
Gusts 0.0 mph

Today
High -- | Low -- °F
--% Chance of Precip.
Yesterday
High -- | Low -- °F
Precip. -- in
Pressure 29.89 in
Visibility 10.0 miles
Clouds Clear
Windchill 39 °F
Dew Point 33 °F
Humidity 81%
Rainfall 0.00 in
Snow Depth Not available.
7:03 AM 4:23 PM
Waxing Crescent, 14% visible
METAR KDXR 030753Z AUTO 28007KT 10SM CLR 04/M03 A2988 RMK AO2 SLP120 T00391028
Pressure 29.89 in
Visibility 10.0 miles
Clouds Clear
Windchill 39 °F
Dew Point 33 °F
Humidity 81%
Rainfall 0.00 in
Snow Depth Not available.
7:03 AM 4:23 PM
Waxing Crescent, 14% visible
METAR KDXR 030753Z AUTO 28007KT 10SM CLR 04/M03 A2988 RMK AO2 SLP120 T00391028

10-Day Weather Forecast

Almanac

Astronomy

Dec. 03, 2016 Rise Set
Actual Time
Civil Twilight
Nautical Twilight
Astronomical Twilight
Moon
Length of Visible Light
Length of Day
Tomorrow will be .
, % of the Moon is Illuminated

Today's Extremes

State Highs State Lows

Community

WunderPhotos

Upload Photos

1,955,434 photos uploaded!

WunderBlog® & News

Nearby

Air Quality

  Air Quality AQ Index Pollutant
Not available.

Snow Depth

Station Depth Elevation

Earthquake Activity

City Distance Mag. Time & Date
Minimum magnitude displayed is 2.5.

Coastal Water Temperatures

Place Temperature

Stations

Nearby Weather Stations

Station Location Temp. Windchill Dew Point Humidity Wind Precip. Elev Updated Type
                   

Watches & Warnings

There are currently no watches in effect.